sensor_id;sensor_type;location;lat;lon;timestamp;pressure;altitude;pressure_sealevel;temperature;humidity
24160;BME280;62385;41.594;23.808;2022-11-15T00:00:29;96067.41;;;2.04;85.03
24160;BME280;62385;41.594;23.808;2022-11-15T00:03:18;96071.16;;;1.87;85.27
24160;BME280;62385;41.594;23.808;2022-11-15T00:06:03;96062.06;;;1.93;85.23
24160;BME280;62385;41.594;23.808;2022-11-15T00:08:49;96063.94;;;1.91;84.93
24160;BME280;62385;41.594;23.808;2022-11-15T00:11:33;96071.31;;;1.98;85.28
24160;BME280;62385;41.594;23.808;2022-11-15T00:14:17;96069.19;;;2.16;84.81
24160;BME280;62385;41.594;23.808;2022-11-15T00:17:01;96067.63;;;2.01;85.19
24160;BME280;62385;41.594;23.808;2022-11-15T00:19:46;96072.13;;;1.99;85.38
24160;BME280;62385;41.594;23.808;2022-11-15T00:22:33;96067.63;;;2.01;85.19
24160;BME280;62385;41.594;23.808;2022-11-15T00:25:17;96064.28;;;1.73;85.53
24160;BME280;62385;41.594;23.808;2022-11-15T00:28:01;96073.28;;;1.95;84.50
24160;BME280;62385;41.594;23.808;2022-11-15T00:30:46;96069.84;;;1.94;85.16
24160;BME280;62385;41.594;23.808;2022-11-15T00:33:31;96067.31;;;1.80;86.41
24160;BME280;62385;41.594;23.808;2022-11-15T00:36:15;96060.59;;;2.01;85.47
24160;BME280;62385;41.594;23.808;2022-11-15T00:39:00;96067.84;;;1.85;85.27
24160;BME280;62385;41.594;23.808;2022-11-15T00:41:44;96057.75;;;1.66;85.99
24160;BME280;62385;41.594;23.808;2022-11-15T00:44:28;96056.59;;;1.70;85.01
24160;BME280;62385;41.594;23.808;2022-11-15T00:47:13;96050.88;;;1.65;85.14
24160;BME280;62385;41.594;23.808;2022-11-15T00:49:58;96054.53;;;1.75;85.41
24160;BME280;62385;41.594;23.808;2022-11-15T00:52:43;96064.66;;;1.67;85.06
24160;BME280;62385;41.594;23.808;2022-11-15T00:55:27;96054.94;;;1.69;85.04
24160;BME280;62385;41.594;23.808;2022-11-15T00:58:11;96058.91;;;1.75;86.70
24160;BME280;62385;41.594;23.808;2022-11-15T01:00:55;96055.78;;;1.57;85.50
24160;BME280;62385;41.594;23.808;2022-11-15T01:03:40;96056.59;;;1.58;85.76
24160;BME280;62385;41.594;23.808;2022-11-15T01:06:26;96047.44;;;1.38;85.52
24160;BME280;62385;41.594;23.808;2022-11-15T01:09:09;96043.41;;;1.59;85.30
24160;BME280;62385;41.594;23.808;2022-11-15T01:11:54;96039.56;;;1.65;85.35
24160;BME280;62385;41.594;23.808;2022-11-15T01:14:38;96039.84;;;1.60;85.08
24160;BME280;62385;41.594;23.808;2022-11-15T01:17:22;96045.69;;;1.51;85.21
24160;BME280;62385;41.594;23.808;2022-11-15T01:20:08;96045.69;;;1.51;84.89
24160;BME280;62385;41.594;23.808;2022-11-15T01:22:53;96053.34;;;1.54;84.83
24160;BME280;62385;41.594;23.808;2022-11-15T01:25:38;96041.84;;;1.57;84.93
24160;BME280;62385;41.594;23.808;2022-11-15T01:28:22;96047.59;;;1.62;84.98
24160;BME280;62385;41.594;23.808;2022-11-15T01:31:11;96034.63;;;1.60;84.19
24160;BME280;62385;41.594;23.808;2022-11-15T01:33:57;96042.16;;;1.52;84.62
24160;BME280;62385;41.594;23.808;2022-11-15T01:36:41;96036.50;;;1.58;85.06
24160;BME280;62385;41.594;23.808;2022-11-15T01:39:26;96041.13;;;1.67;84.95
24160;BME280;62385;41.594;23.808;2022-11-15T01:42:13;96040.25;;;1.54;85.12
24160;BME280;62385;41.594;23.808;2022-11-15T01:44:58;96032.50;;;1.40;84.45
24160;BME280;62385;41.594;23.808;2022-11-15T01:47:51;96041.19;;;1.41;85.74
24160;BME280;62385;41.594;23.808;2022-11-15T01:50:38;96035.63;;;1.45;84.56
24160;BME280;62385;41.594;23.808;2022-11-15T01:53:23;96033.03;;;1.32;85.34
24160;BME280;62385;41.594;23.808;2022-11-15T01:56:12;96031.34;;;1.31;86.34
24160;BME280;62385;41.594;23.808;2022-11-15T01:58:59;96025.38;;;1.42;86.78
24160;BME280;62385;41.594;23.808;2022-11-15T02:01:46;96029.97;;;1.38;85.47
24160;BME280;62385;41.594;23.808;2022-11-15T02:04:42;96034.00;;;1.17;85.83
24160;BME280;62385;41.594;23.808;2022-11-15T02:07:28;96029.94;;;1.26;84.69
24160;BME280;62385;41.594;23.808;2022-11-15T02:10:18;96037.94;;;0.98;84.89
24160;BME280;62385;41.594;23.808;2022-11-15T02:13:02;96034.56;;;0.96;85.10
24160;BME280;62385;41.594;23.808;2022-11-15T02:19:13;96038.97;;;0.95;85.42
24160;BME280;62385;41.594;23.808;2022-11-15T02:31:54;96029.41;;;1.21;84.84
24160;BME280;62385;41.594;23.808;2022-11-15T02:40:39;96031.63;;;1.27;84.57
24160;BME280;62385;41.594;23.808;2022-11-15T02:44:22;96039.00;;;1.47;84.89
24160;BME280;62385;41.594;23.808;2022-11-15T02:47:12;96036.59;;;1.44;87.90
24160;BME280;62385;41.594;23.808;2022-11-15T02:50:02;96042.22;;;1.38;88.47
24160;BME280;62385;41.594;23.808;2022-11-15T02:52:49;96042.75;;;1.43;87.85
24160;BME280;62385;41.594;23.808;2022-11-15T02:55:38;96041.81;;;1.44;88.19
24160;BME280;62385;41.594;23.808;2022-11-15T03:10:40;96033.34;;;1.41;89.10
24160;BME280;62385;41.594;23.808;2022-11-15T03:13:30;96034.59;;;1.35;88.65
24160;BME280;62385;41.594;23.808;2022-11-15T03:16:19;96031.22;;;1.33;88.09
24160;BME280;62385;41.594;23.808;2022-11-15T03:19:30;96024.19;;;1.21;87.97
24160;BME280;62385;41.594;23.808;2022-11-15T03:22:20;96038.22;;;0.66;88.12
24160;BME280;62385;41.594;23.808;2022-11-15T03:25:07;96030.53;;;0.77;87.26
24160;BME280;62385;41.594;23.808;2022-11-15T03:27:55;96024.31;;;0.92;88.05
24160;BME280;62385;41.594;23.808;2022-11-15T03:30:42;96022.19;;;1.12;88.26
24160;BME280;62385;41.594;23.808;2022-11-15T03:33:28;96022.06;;;1.13;88.45
24160;BME280;62385;41.594;23.808;2022-11-15T03:36:13;96022.53;;;0.93;87.93
24160;BME280;62385;41.594;23.808;2022-11-15T03:39:02;96013.94;;;0.78;87.54
24160;BME280;62385;41.594;23.808;2022-11-15T03:42:17;96026.19;;;0.64;86.92
24160;BME280;62385;41.594;23.808;2022-11-15T03:48:05;96019.03;;;0.80;86.23
24160;BME280;62385;41.594;23.808;2022-11-15T03:50:53;96017.84;;;0.71;86.35
24160;BME280;62385;41.594;23.808;2022-11-15T03:53:37;96011.69;;;0.99;85.23
24160;BME280;62385;41.594;23.808;2022-11-15T03:56:21;96011.66;;;0.86;85.83
24160;BME280;62385;41.594;23.808;2022-11-15T03:59:06;96002.81;;;0.75;86.27
24160;BME280;62385;41.594;23.808;2022-11-15T04:01:50;96010.47;;;0.78;85.81
24160;BME280;62385;41.594;23.808;2022-11-15T04:04:34;96009.63;;;0.77;85.86
24160;BME280;62385;41.594;23.808;2022-11-15T04:07:18;96009.97;;;0.85;85.48
24160;BME280;62385;41.594;23.808;2022-11-15T04:10:03;96011.13;;;0.81;85.48
24160;BME280;62385;41.594;23.808;2022-11-15T04:12:48;96003.94;;;0.71;85.66
24160;BME280;62385;41.594;23.808;2022-11-15T04:15:32;96006.38;;;0.74;86.67
24160;BME280;62385;41.594;23.808;2022-11-15T04:18:16;96003.06;;;0.84;87.96
24160;BME280;62385;41.594;23.808;2022-11-15T04:21:00;96002.69;;;0.90;88.00
24160;BME280;62385;41.594;23.808;2022-11-15T04:24:04;96000.19;;;1.02;87.92
24160;BME280;62385;41.594;23.808;2022-11-15T04:26:48;96000.13;;;1.16;86.90
24160;BME280;62385;41.594;23.808;2022-11-15T04:29:33;95993.59;;;0.96;86.51
24160;BME280;62385;41.594;23.808;2022-11-15T04:32:20;95996.41;;;0.93;87.50
24160;BME280;62385;41.594;23.808;2022-11-15T04:35:05;96007.91;;;0.90;86.52
24160;BME280;62385;41.594;23.808;2022-11-15T04:37:49;95996.44;;;1.06;85.93
24160;BME280;62385;41.594;23.808;2022-11-15T04:40:34;95993.38;;;0.86;86.57
24160;BME280;62385;41.594;23.808;2022-11-15T04:43:18;95991.94;;;0.68;87.88
24160;BME280;62385;41.594;23.808;2022-11-15T04:46:02;95991.84;;;0.70;87.71
24160;BME280;62385;41.594;23.808;2022-11-15T04:48:46;95988.25;;;0.98;88.54
24160;BME280;62385;41.594;23.808;2022-11-15T04:51:30;95974.00;;;1.16;88.66
24160;BME280;62385;41.594;23.808;2022-11-15T04:54:14;95984.84;;;1.10;88.05
24160;BME280;62385;41.594;23.808;2022-11-15T04:56:58;95992.59;;;1.11;88.76
24160;BME280;62385;41.594;23.808;2022-11-15T04:59:43;95998.22;;;1.05;88.82
24160;BME280;62385;41.594;23.808;2022-11-15T05:02:29;95989.09;;;0.71;88.77
24160;BME280;62385;41.594;23.808;2022-11-15T05:05:34;95988.66;;;0.91;89.33
24160;BME280;62385;41.594;23.808;2022-11-15T05:08:19;95986.03;;;0.91;89.45
24160;BME280;62385;41.594;23.808;2022-11-15T05:11:04;95984.81;;;0.97;90.46
24160;BME280;62385;41.594;23.808;2022-11-15T05:13:49;95987.47;;;1.10;89.40
24160;BME280;62385;41.594;23.808;2022-11-15T05:16:34;95985.59;;;1.12;89.68
24160;BME280;62385;41.594;23.808;2022-11-15T05:19:18;95979.53;;;1.11;88.85
24160;BME280;62385;41.594;23.808;2022-11-15T05:22:02;95985.44;;;1.01;88.86
24160;BME280;62385;41.594;23.808;2022-11-15T05:24:46;95992.09;;;1.19;88.05
24160;BME280;62385;41.594;23.808;2022-11-15T05:27:30;95979.00;;;1.19;88.16
24160;BME280;62385;41.594;23.808;2022-11-15T05:30:15;95985.59;;;1.37;88.63
24160;BME280;62385;41.594;23.808;2022-11-15T05:33:01;95989.81;;;1.52;88.51
24160;BME280;62385;41.594;23.808;2022-11-15T05:35:50;95993.47;;;1.50;88.74
24160;BME280;62385;41.594;23.808;2022-11-15T05:38:37;95995.47;;;1.46;88.57
24160;BME280;62385;41.594;23.808;2022-11-15T05:41:29;95995.66;;;1.43;89.08
24160;BME280;62385;41.594;23.808;2022-11-15T05:44:15;95991.81;;;1.36;88.77
24160;BME280;62385;41.594;23.808;2022-11-15T05:47:04;95995.06;;;1.52;88.51
24160;BME280;62385;41.594;23.808;2022-11-15T05:49:50;95988.34;;;1.48;89.17
24160;BME280;62385;41.594;23.808;2022-11-15T05:52:37;95995.16;;;1.63;88.61
24160;BME280;62385;41.594;23.808;2022-11-15T05:55:22;95998.09;;;1.59;88.77
24160;BME280;62385;41.594;23.808;2022-11-15T05:58:07;95995.59;;;1.57;89.55
24160;BME280;62385;41.594;23.808;2022-11-15T06:00:51;96008.88;;;1.67;88.14
24160;BME280;62385;41.594;23.808;2022-11-15T06:03:35;96011.16;;;1.59;88.38
24160;BME280;62385;41.594;23.808;2022-11-15T06:06:21;96012.63;;;1.63;88.66
24160;BME280;62385;41.594;23.808;2022-11-15T06:09:05;96010.47;;;1.69;88.48
24160;BME280;62385;41.594;23.808;2022-11-15T06:11:49;96013.25;;;1.54;89.07
24160;BME280;62385;41.594;23.808;2022-11-15T06:14:33;96011.28;;;1.57;88.84
24160;BME280;62385;41.594;23.808;2022-11-15T06:17:17;96010.75;;;1.65;88.01
24160;BME280;62385;41.594;23.808;2022-11-15T06:20:01;96021.25;;;1.77;88.36
24160;BME280;62385;41.594;23.808;2022-11-15T06:22:45;96014.41;;;1.75;88.36
24160;BME280;62385;41.594;23.808;2022-11-15T06:25:30;96010.16;;;1.74;87.30
24160;BME280;62385;41.594;23.808;2022-11-15T06:28:14;96011.59;;;1.65;88.09
24160;BME280;62385;41.594;23.808;2022-11-15T06:31:03;96012.03;;;1.84;88.56
24160;BME280;62385;41.594;23.808;2022-11-15T06:33:47;96018.31;;;1.95;88.40
24160;BME280;62385;41.594;23.808;2022-11-15T06:36:34;96015.66;;;2.07;87.07
24160;BME280;62385;41.594;23.808;2022-11-15T06:39:19;96021.63;;;2.09;88.27
24160;BME280;62385;41.594;23.808;2022-11-15T06:42:04;96018.41;;;2.06;87.74
24160;BME280;62385;41.594;23.808;2022-11-15T06:44:48;96019.78;;;1.99;87.85
24160;BME280;62385;41.594;23.808;2022-11-15T06:47:31;96023.88;;;1.90;88.24
24160;BME280;62385;41.594;23.808;2022-11-15T06:50:15;96024.78;;;1.76;86.81
24160;BME280;62385;41.594;23.808;2022-11-15T06:53:03;96019.78;;;1.61;87.07
24160;BME280;62385;41.594;23.808;2022-11-15T06:55:47;96020.50;;;1.75;88.16
24160;BME280;62385;41.594;23.808;2022-11-15T06:58:32;96017.97;;;1.86;87.92
24160;BME280;62385;41.594;23.808;2022-11-15T07:01:16;96021.84;;;2.19;88.19
24160;BME280;62385;41.594;23.808;2022-11-15T07:04:00;96016.22;;;2.49;87.20
24160;BME280;62385;41.594;23.808;2022-11-15T07:06:49;96014.06;;;2.30;86.97
24160;BME280;62385;41.594;23.808;2022-11-15T07:09:33;96004.19;;;2.46;87.25
24160;BME280;62385;41.594;23.808;2022-11-15T07:12:17;96015.28;;;2.73;86.71
24160;BME280;62385;41.594;23.808;2022-11-15T07:15:02;96002.59;;;2.80;87.04
24160;BME280;62385;41.594;23.808;2022-11-15T07:17:46;96008.50;;;2.71;87.00
24160;BME280;62385;41.594;23.808;2022-11-15T07:20:30;96007.94;;;2.78;86.58
24160;BME280;62385;41.594;23.808;2022-11-15T07:23:14;96012.06;;;2.70;86.30
24160;BME280;62385;41.594;23.808;2022-11-15T07:25:58;96012.66;;;2.73;86.24
24160;BME280;62385;41.594;23.808;2022-11-15T07:28:43;96007.78;;;2.93;86.06
24160;BME280;62385;41.594;23.808;2022-11-15T07:31:27;96004.72;;;2.75;85.64
24160;BME280;62385;41.594;23.808;2022-11-15T07:34:11;96008.44;;;2.84;86.68
24160;BME280;62385;41.594;23.808;2022-11-15T07:36:57;96002.66;;;2.91;87.01
24160;BME280;62385;41.594;23.808;2022-11-15T07:39:41;96001.84;;;2.78;85.81
24160;BME280;62385;41.594;23.808;2022-11-15T07:42:25;95995.84;;;2.89;86.74
24160;BME280;62385;41.594;23.808;2022-11-15T07:45:29;95999.72;;;3.07;85.47
24160;BME280;62385;41.594;23.808;2022-11-15T07:48:13;95991.88;;;3.07;85.39
24160;BME280;62385;41.594;23.808;2022-11-15T07:50:57;95988.50;;;2.94;85.24
24160;BME280;62385;41.594;23.808;2022-11-15T07:53:42;95990.63;;;3.23;85.25
24160;BME280;62385;41.594;23.808;2022-11-15T07:56:27;96003.53;;;3.27;85.74
24160;BME280;62385;41.594;23.808;2022-11-15T07:59:12;95993.44;;;3.09;85.19
24160;BME280;62385;41.594;23.808;2022-11-15T08:01:56;95975.72;;;3.24;85.46
24160;BME280;62385;41.594;23.808;2022-11-15T08:04:40;95981.63;;;3.50;85.36
24160;BME280;62385;41.594;23.808;2022-11-15T08:07:24;95976.94;;;3.31;84.27
24160;BME280;62385;41.594;23.808;2022-11-15T08:10:09;95977.84;;;3.54;85.32
24160;BME280;62385;41.594;23.808;2022-11-15T08:15:46;95961.53;;;3.95;85.36
24160;BME280;62385;41.594;23.808;2022-11-15T08:18:30;95967.25;;;4.11;84.72
24160;BME280;62385;41.594;23.808;2022-11-15T08:21:18;95961.63;;;4.27;84.67
24160;BME280;62385;41.594;23.808;2022-11-15T08:24:03;95967.50;;;4.30;83.21
24160;BME280;62385;41.594;23.808;2022-11-15T08:26:47;95960.34;;;4.21;83.23
24160;BME280;62385;41.594;23.808;2022-11-15T08:29:31;95957.13;;;4.17;83.46
24160;BME280;62385;41.594;23.808;2022-11-15T08:32:15;95954.72;;;4.14;84.09
24160;BME280;62385;41.594;23.808;2022-11-15T08:34:59;95954.59;;;3.71;84.85
24160;BME280;62385;41.594;23.808;2022-11-15T08:37:43;95947.09;;;3.89;85.30
24160;BME280;62385;41.594;23.808;2022-11-15T08:40:27;95944.81;;;4.18;84.54
24160;BME280;62385;41.594;23.808;2022-11-15T08:43:13;95938.09;;;4.36;85.29
24160;BME280;62385;41.594;23.808;2022-11-15T08:45:57;95945.53;;;4.20;85.40
24160;BME280;62385;41.594;23.808;2022-11-15T08:48:43;95941.59;;;4.26;86.00
24160;BME280;62385;41.594;23.808;2022-11-15T08:51:26;95943.25;;;4.27;85.83
24160;BME280;62385;41.594;23.808;2022-11-15T08:54:11;95937.75;;;4.30;86.47
24160;BME280;62385;41.594;23.808;2022-11-15T08:56:55;95934.28;;;4.29;85.36
24160;BME280;62385;41.594;23.808;2022-11-15T08:59:39;95930.94;;;4.38;85.34
24160;BME280;62385;41.594;23.808;2022-11-15T09:02:23;95925.91;;;4.46;85.63
24160;BME280;62385;41.594;23.808;2022-11-15T09:05:09;95913.56;;;4.58;85.33
24160;BME280;62385;41.594;23.808;2022-11-15T09:07:53;95911.31;;;4.85;84.04
24160;BME280;62385;41.594;23.808;2022-11-15T09:10:39;95906.19;;;4.84;84.54
24160;BME280;62385;41.594;23.808;2022-11-15T09:13:22;95898.69;;;5.00;83.38
24160;BME280;62385;41.594;23.808;2022-11-15T09:16:08;95898.16;;;5.17;82.42
24160;BME280;62385;41.594;23.808;2022-11-15T09:18:53;95884.19;;;5.47;79.97
24160;BME280;62385;41.594;23.808;2022-11-15T09:21:37;95881.78;;;5.65;80.11
24160;BME280;62385;41.594;23.808;2022-11-15T09:24:21;95873.78;;;5.76;80.11
24160;BME280;62385;41.594;23.808;2022-11-15T09:27:07;95866.06;;;6.05;78.54
24160;BME280;62385;41.594;23.808;2022-11-15T09:29:51;95868.25;;;6.09;78.51
24160;BME280;62385;41.594;23.808;2022-11-15T09:32:35;95864.94;;;6.07;80.27
24160;BME280;62385;41.594;23.808;2022-11-15T09:35:20;95861.66;;;6.24;78.45
24160;BME280;62385;41.594;23.808;2022-11-15T09:38:04;95860.16;;;6.31;79.03
24160;BME280;62385;41.594;23.808;2022-11-15T09:40:59;95844.69;;;6.17;79.71
24160;BME280;62385;41.594;23.808;2022-11-15T09:49:18;95836.03;;;6.45;80.69
24160;BME280;62385;41.594;23.808;2022-11-15T09:51:58;95838.50;;;6.47;80.07
24160;BME280;62385;41.594;23.808;2022-11-15T09:54:36;95827.28;;;6.64;81.70
24160;BME280;62385;41.594;23.808;2022-11-15T09:59:55;95819.22;;;6.94;78.51
24160;BME280;62385;41.594;23.808;2022-11-15T10:05:22;95797.69;;;6.99;78.86
24160;BME280;62385;41.594;23.808;2022-11-15T10:12:58;95795.94;;;7.36;78.09
24160;BME280;62385;41.594;23.808;2022-11-15T10:15:24;95791.94;;;7.32;79.08
24160;BME280;62385;41.594;23.808;2022-11-15T10:20:18;95781.59;;;7.49;78.66
24160;BME280;62385;41.594;23.808;2022-11-15T10:22:49;95772.72;;;7.40;78.91
24160;BME280;62385;41.594;23.808;2022-11-15T10:31:00;95764.16;;;7.83;77.94
24160;BME280;62385;41.594;23.808;2022-11-15T10:33:34;95741.53;;;7.80;77.86
24160;BME280;62385;41.594;23.808;2022-11-15T10:36:19;95732.00;;;7.87;76.79
24160;BME280;62385;41.594;23.808;2022-11-15T10:41:16;95730.91;;;8.08;76.74
24160;BME280;62385;41.594;23.808;2022-11-15T10:43:42;95718.53;;;8.26;76.74
24160;BME280;62385;41.594;23.808;2022-11-15T10:46:19;95712.06;;;8.38;73.88
24160;BME280;62385;41.594;23.808;2022-11-15T10:48:45;95719.31;;;8.18;74.79
24160;BME280;62385;41.594;23.808;2022-11-15T10:51:22;95707.88;;;8.18;74.15
24160;BME280;62385;41.594;23.808;2022-11-15T10:53:54;95710.75;;;8.24;74.44
24160;BME280;62385;41.594;23.808;2022-11-15T10:56:22;95707.81;;;8.27;73.25
24160;BME280;62385;41.594;23.808;2022-11-15T10:58:56;95687.50;;;8.28;73.88
24160;BME280;62385;41.594;23.808;2022-11-15T11:01:24;95687.28;;;8.39;74.02
24160;BME280;62385;41.594;23.808;2022-11-15T11:04:05;95677.03;;;8.62;73.97
24160;BME280;62385;41.594;23.808;2022-11-15T11:06:52;95672.81;;;8.69;73.33
24160;BME280;62385;41.594;23.808;2022-11-15T11:09:33;95673.34;;;8.55;73.39
24160;BME280;62385;41.594;23.808;2022-11-15T11:11:59;95674.03;;;8.82;72.92
24160;BME280;62385;41.594;23.808;2022-11-15T11:14:30;95662.63;;;8.82;72.66
24160;BME280;62385;41.594;23.808;2022-11-15T11:17:23;95659.34;;;8.62;73.51
24160;BME280;62385;41.594;23.808;2022-11-15T11:21:15;95663.31;;;9.10;72.56
24160;BME280;62385;41.594;23.808;2022-11-15T11:23:52;95656.88;;;9.20;71.93
24160;BME280;62385;41.594;23.808;2022-11-15T11:26:40;95651.50;;;9.04;73.03
24160;BME280;62385;41.594;23.808;2022-11-15T11:29:27;95639.75;;;9.41;71.94
24160;BME280;62385;41.594;23.808;2022-11-15T11:35:20;95639.88;;;9.23;71.42
24160;BME280;62385;41.594;23.808;2022-11-15T11:38:11;95628.94;;;9.26;69.35
24160;BME280;62385;41.594;23.808;2022-11-15T11:41:00;95619.63;;;9.56;68.22
24160;BME280;62385;41.594;23.808;2022-11-15T11:43:34;95618.41;;;9.42;69.84
24160;BME280;62385;41.594;23.808;2022-11-15T11:48:51;95601.91;;;9.56;67.73
24160;BME280;62385;41.594;23.808;2022-11-15T11:51:36;95598.41;;;9.56;68.33
24160;BME280;62385;41.594;23.808;2022-11-15T11:57:38;95596.34;;;10.08;65.94
24160;BME280;62385;41.594;23.808;2022-11-15T12:00:24;95589.53;;;9.97;66.15
24160;BME280;62385;41.594;23.808;2022-11-15T12:06:00;95577.78;;;10.48;64.08
24160;BME280;62385;41.594;23.808;2022-11-15T12:11:17;95578.25;;;9.95;67.75
24160;BME280;62385;41.594;23.808;2022-11-15T12:13:48;95561.38;;;10.29;66.31
24160;BME280;62385;41.594;23.808;2022-11-15T12:16:31;95557.41;;;10.33;66.16
24160;BME280;62385;41.594;23.808;2022-11-15T12:19:03;95548.78;;;10.39;65.25
24160;BME280;62385;41.594;23.808;2022-11-15T12:26:46;95541.31;;;10.34;64.75
24160;BME280;62385;41.594;23.808;2022-11-15T12:29:31;95537.66;;;10.51;64.30
24160;BME280;62385;41.594;23.808;2022-11-15T12:31:59;95543.44;;;10.63;64.80
24160;BME280;62385;41.594;23.808;2022-11-15T12:34:30;95540.56;;;10.73;64.01
24160;BME280;62385;41.594;23.808;2022-11-15T12:37:00;95533.91;;;10.85;63.88
24160;BME280;62385;41.594;23.808;2022-11-15T12:40:19;95525.81;;;10.70;63.87
24160;BME280;62385;41.594;23.808;2022-11-15T12:42:56;95521.50;;;10.69;63.87
24160;BME280;62385;41.594;23.808;2022-11-15T12:45:37;95523.53;;;10.59;64.81
24160;BME280;62385;41.594;23.808;2022-11-15T12:50:59;95515.88;;;10.64;65.13
24160;BME280;62385;41.594;23.808;2022-11-15T12:53:44;95510.78;;;10.93;64.15
24160;BME280;62385;41.594;23.808;2022-11-15T12:58:54;95506.38;;;10.70;65.96
24160;BME280;62385;41.594;23.808;2022-11-15T13:06:58;95502.91;;;10.69;66.16
24160;BME280;62385;41.594;23.808;2022-11-15T13:15:00;95481.69;;;11.31;62.39
24160;BME280;62385;41.594;23.808;2022-11-15T13:17:29;95478.66;;;11.11;63.71
24160;BME280;62385;41.594;23.808;2022-11-15T13:22:43;95476.75;;;11.28;63.78
24160;BME280;62385;41.594;23.808;2022-11-15T13:27:48;95476.75;;;10.97;65.40
24160;BME280;62385;41.594;23.808;2022-11-15T13:30:20;95474.31;;;10.87;65.22
24160;BME280;62385;41.594;23.808;2022-11-15T13:32:47;95468.91;;;11.03;65.53
24160;BME280;62385;41.594;23.808;2022-11-15T13:35:24;95471.28;;;10.90;66.47
24160;BME280;62385;41.594;23.808;2022-11-15T13:37:52;95460.25;;;11.09;65.12
24160;BME280;62385;41.594;23.808;2022-11-15T13:42:49;95459.75;;;11.06;65.38
24160;BME280;62385;41.594;23.808;2022-11-15T13:45:17;95467.97;;;10.96;65.87
24160;BME280;62385;41.594;23.808;2022-11-15T13:47:43;95472.16;;;10.83;65.53
24160;BME280;62385;41.594;23.808;2022-11-15T13:50:12;95469.06;;;10.71;65.46
24160;BME280;62385;41.594;23.808;2022-11-15T13:52:40;95463.03;;;10.77;64.80
24160;BME280;62385;41.594;23.808;2022-11-15T13:55:14;95459.44;;;10.70;66.39
24160;BME280;62385;41.594;23.808;2022-11-15T14:02:48;95467.88;;;10.74;66.13
24160;BME280;62385;41.594;23.808;2022-11-15T14:05:19;95462.75;;;10.72;65.88
24160;BME280;62385;41.594;23.808;2022-11-15T14:08:12;95465.03;;;10.83;64.99
24160;BME280;62385;41.594;23.808;2022-11-15T14:10:47;95469.34;;;10.84;64.13
24160;BME280;62385;41.594;23.808;2022-11-15T14:13:30;95461.97;;;10.63;65.71
24160;BME280;62385;41.594;23.808;2022-11-15T14:16:18;95462.47;;;10.59;66.04
24160;BME280;62385;41.594;23.808;2022-11-15T14:18:50;95458.50;;;10.55;65.96
24160;BME280;62385;41.594;23.808;2022-11-15T14:21:18;95454.38;;;10.44;66.22
24160;BME280;62385;41.594;23.808;2022-11-15T14:23:44;95456.19;;;10.44;66.01
24160;BME280;62385;41.594;23.808;2022-11-15T14:26:31;95454.28;;;10.22;67.10
24160;BME280;62385;41.594;23.808;2022-11-15T14:29:27;95454.78;;;10.17;67.74
24160;BME280;62385;41.594;23.808;2022-11-15T14:31:54;95460.06;;;10.25;66.82
24160;BME280;62385;41.594;23.808;2022-11-15T14:34:32;95460.22;;;10.07;67.57
24160;BME280;62385;41.594;23.808;2022-11-15T14:36:57;95455.63;;;10.01;67.22
24160;BME280;62385;41.594;23.808;2022-11-15T14:39:23;95450.47;;;9.92;67.88
24160;BME280;62385;41.594;23.808;2022-11-15T14:41:50;95448.47;;;9.86;67.79
24160;BME280;62385;41.594;23.808;2022-11-15T14:44:17;95446.84;;;9.93;67.39
24160;BME280;62385;41.594;23.808;2022-11-15T14:46:43;95456.63;;;9.76;67.93
24160;BME280;62385;41.594;23.808;2022-11-15T14:49:10;95458.59;;;9.58;68.05
24160;BME280;62385;41.594;23.808;2022-11-15T14:51:35;95462.72;;;9.44;69.46
24160;BME280;62385;41.594;23.808;2022-11-15T14:54:01;95467.16;;;9.11;71.83
24160;BME280;62385;41.594;23.808;2022-11-15T14:56:27;95461.75;;;8.71;73.24
24160;BME280;62385;41.594;23.808;2022-11-15T14:58:53;95468.78;;;8.54;73.76
24160;BME280;62385;41.594;23.808;2022-11-15T15:01:24;95470.88;;;8.43;74.33
24160;BME280;62385;41.594;23.808;2022-11-15T15:03:51;95464.41;;;8.37;74.49
24160;BME280;62385;41.594;23.808;2022-11-15T15:06:18;95468.72;;;8.38;74.04
24160;BME280;62385;41.594;23.808;2022-11-15T15:08:44;95468.28;;;8.25;74.70
24160;BME280;62385;41.594;23.808;2022-11-15T15:11:13;95462.69;;;8.28;74.85
24160;BME280;62385;41.594;23.808;2022-11-15T15:13:41;95472.03;;;8.14;74.38
24160;BME280;62385;41.594;23.808;2022-11-15T15:16:06;95473.94;;;8.04;74.96
24160;BME280;62385;41.594;23.808;2022-11-15T15:18:33;95474.81;;;7.87;75.84
24160;BME280;62385;41.594;23.808;2022-11-15T15:20:59;95474.16;;;7.85;75.75
24160;BME280;62385;41.594;23.808;2022-11-15T15:23:28;95471.50;;;7.85;75.70
24160;BME280;62385;41.594;23.808;2022-11-15T15:25:57;95471.13;;;7.80;76.07
24160;BME280;62385;41.594;23.808;2022-11-15T15:28:23;95474.84;;;7.69;76.08
24160;BME280;62385;41.594;23.808;2022-11-15T15:30:48;95470.19;;;7.63;76.54
24160;BME280;62385;41.594;23.808;2022-11-15T15:33:16;95471.16;;;7.62;76.51
24160;BME280;62385;41.594;23.808;2022-11-15T15:35:41;95468.66;;;7.78;76.18
24160;BME280;62385;41.594;23.808;2022-11-15T15:38:11;95473.41;;;7.75;75.44
24160;BME280;62385;41.594;23.808;2022-11-15T15:40:38;95480.06;;;7.61;76.25
24160;BME280;62385;41.594;23.808;2022-11-15T15:43:03;95479.00;;;7.54;76.42
24160;BME280;62385;41.594;23.808;2022-11-15T15:45:29;95482.50;;;7.37;77.05
24160;BME280;62385;41.594;23.808;2022-11-15T15:47:56;95476.09;;;7.39;77.38
24160;BME280;62385;41.594;23.808;2022-11-15T15:50:25;95478.72;;;7.39;77.30
24160;BME280;62385;41.594;23.808;2022-11-15T15:52:53;95472.91;;;7.18;77.62
24160;BME280;62385;41.594;23.808;2022-11-15T15:55:19;95478.81;;;7.12;78.09
24160;BME280;62385;41.594;23.808;2022-11-15T15:57:44;95476.00;;;7.14;78.09
24160;BME280;62385;41.594;23.808;2022-11-15T16:00:11;95476.69;;;7.16;78.51
24160;BME280;62385;41.594;23.808;2022-11-15T16:02:38;95472.59;;;7.21;77.90
24160;BME280;62385;41.594;23.808;2022-11-15T16:05:04;95475.31;;;6.94;79.10